sensor_id;sensor_type;location;lat;lon;timestamp;P1;durP1;ratioP1;P2;durP2;ratioP2
21107;SDS011;10712;52.944;9.098;2023-06-22T00:02:16;6.60;;;6.00;;
21107;SDS011;10712;52.944;9.098;2023-06-22T00:04:43;7.10;;;6.40;;
21107;SDS011;10712;52.944;9.098;2023-06-22T00:07:09;7.32;;;6.55;;
21107;SDS011;10712;52.944;9.098;2023-06-22T00:09:35;7.50;;;6.45;;
21107;SDS011;10712;52.944;9.098;2023-06-22T00:12:01;7.40;;;6.05;;
21107;SDS011;10712;52.944;9.098;2023-06-22T00:14:27;6.65;;;5.90;;
21107;SDS011;10712;52.944;9.098;2023-06-22T00:16:53;7.22;;;6.53;;
21107;SDS011;10712;52.944;9.098;2023-06-22T00:19:22;6.00;;;5.40;;
21107;SDS011;10712;52.944;9.098;2023-06-22T00:21:48;7.25;;;6.55;;
21107;SDS011;10712;52.944;9.098;2023-06-22T00:24:18;9.18;;;7.25;;
21107;SDS011;10712;52.944;9.098;2023-06-22T00:26:45;7.63;;;6.90;;
21107;SDS011;10712;52.944;9.098;2023-06-22T00:29:12;7.32;;;6.63;;
21107;SDS011;10712;52.944;9.098;2023-06-22T00:31:37;7.90;;;5.28;;
21107;SDS011;10712;52.944;9.098;2023-06-22T00:34:03;7.88;;;7.10;;
21107;SDS011;10712;52.944;9.098;2023-06-22T00:36:32;7.18;;;6.47;;
21107;SDS011;10712;52.944;9.098;2023-06-22T00:38:58;7.40;;;6.70;;
21107;SDS011;10712;52.944;9.098;2023-06-22T00:41:24;5.70;;;4.88;;
21107;SDS011;10712;52.944;9.098;2023-06-22T00:43:53;4.63;;;4.22;;
21107;SDS011;10712;52.944;9.098;2023-06-22T00:46:20;6.40;;;5.78;;
21107;SDS011;10712;52.944;9.098;2023-06-22T00:48:48;5.53;;;5.03;;
21107;SDS011;10712;52.944;9.098;2023-06-22T00:51:16;5.25;;;4.75;;
21107;SDS011;10712;52.944;9.098;2023-06-22T00:53:43;7.40;;;6.60;;
21107;SDS011;10712;52.944;9.098;2023-06-22T00:56:09;6.78;;;6.18;;
21107;SDS011;10712;52.944;9.098;2023-06-22T00:58:37;7.90;;;7.05;;
21107;SDS011;10712;52.944;9.098;2023-06-22T01:01:06;8.35;;;7.00;;
21107;SDS011;10712;52.944;9.098;2023-06-22T01:03:32;7.32;;;5.85;;
21107;SDS011;10712;52.944;9.098;2023-06-22T01:06:01;6.93;;;6.07;;
21107;SDS011;10712;52.944;9.098;2023-06-22T01:12:00;8.07;;;7.35;;
21107;SDS011;10712;52.944;9.098;2023-06-22T01:16:48;7.53;;;6.40;;
21107;SDS011;10712;52.944;9.098;2023-06-22T01:19:39;8.85;;;7.25;;
21107;SDS011;10712;52.944;9.098;2023-06-22T01:22:17;7.20;;;6.50;;
21107;SDS011;10712;52.944;9.098;2023-06-22T01:27:46;8.00;;;7.20;;
21107;SDS011;10712;52.944;9.098;2023-06-22T01:30:30;6.60;;;6.00;;
21107;SDS011;10712;52.944;9.098;2023-06-22T01:32:59;6.93;;;6.05;;
21107;SDS011;10712;52.944;9.098;2023-06-22T01:35:30;7.00;;;6.40;;
21107;SDS011;10712;52.944;9.098;2023-06-22T01:37:59;6.65;;;6.05;;
21107;SDS011;10712;52.944;9.098;2023-06-22T01:40:25;6.82;;;6.00;;
21107;SDS011;10712;52.944;9.098;2023-06-22T01:42:53;6.60;;;5.80;;
21107;SDS011;10712;52.944;9.098;2023-06-22T01:45:19;9.07;;;8.18;;
21107;SDS011;10712;52.944;9.098;2023-06-22T01:47:45;7.45;;;6.75;;
21107;SDS011;10712;52.944;9.098;2023-06-22T01:50:12;10.00;;;7.50;;
21107;SDS011;10712;52.944;9.098;2023-06-22T01:52:38;8.82;;;7.90;;
21107;SDS011;10712;52.944;9.098;2023-06-22T01:55:04;8.20;;;5.85;;
21107;SDS011;10712;52.944;9.098;2023-06-22T01:57:31;6.75;;;6.05;;
21107;SDS011;10712;52.944;9.098;2023-06-22T02:00:02;7.25;;;6.55;;
21107;SDS011;10712;52.944;9.098;2023-06-22T02:05:47;7.53;;;6.72;;
21107;SDS011;10712;52.944;9.098;2023-06-22T02:08:30;6.18;;;5.68;;
21107;SDS011;10712;52.944;9.098;2023-06-22T02:11:07;7.82;;;6.43;;
21107;SDS011;10712;52.944;9.098;2023-06-22T02:13:37;7.20;;;6.50;;
21107;SDS011;10712;52.944;9.098;2023-06-22T02:16:09;8.35;;;7.07;;
21107;SDS011;10712;52.944;9.098;2023-06-22T02:18:39;8.73;;;7.15;;
21107;SDS011;10712;52.944;9.098;2023-06-22T02:21:12;6.30;;;5.70;;
21107;SDS011;10712;52.944;9.098;2023-06-22T02:23:38;8.30;;;6.65;;
21107;SDS011;10712;52.944;9.098;2023-06-22T02:26:04;7.00;;;6.30;;
21107;SDS011;10712;52.944;9.098;2023-06-22T02:28:30;11.02;;;9.57;;
21107;SDS011;10712;52.944;9.098;2023-06-22T02:30:56;9.48;;;8.52;;
21107;SDS011;10712;52.944;9.098;2023-06-22T02:33:22;7.35;;;6.68;;
21107;SDS011;10712;52.944;9.098;2023-06-22T02:35:48;7.43;;;6.72;;
21107;SDS011;10712;52.944;9.098;2023-06-22T02:38:14;8.80;;;7.90;;
21107;SDS011;10712;52.944;9.098;2023-06-22T02:40:40;10.23;;;9.23;;
21107;SDS011;10712;52.944;9.098;2023-06-22T02:43:06;10.23;;;9.07;;
21107;SDS011;10712;52.944;9.098;2023-06-22T02:45:32;11.77;;;10.10;;
21107;SDS011;10712;52.944;9.098;2023-06-22T02:47:57;9.25;;;8.07;;
21107;SDS011;10712;52.944;9.098;2023-06-22T02:50:24;7.28;;;6.57;;
21107;SDS011;10712;52.944;9.098;2023-06-22T02:52:50;8.32;;;7.53;;
21107;SDS011;10712;52.944;9.098;2023-06-22T02:55:16;9.05;;;8.15;;
21107;SDS011;10712;52.944;9.098;2023-06-22T02:57:50;9.48;;;8.50;;
21107;SDS011;10712;52.944;9.098;2023-06-22T03:00:18;9.55;;;8.52;;
21107;SDS011;10712;52.944;9.098;2023-06-22T03:02:47;7.55;;;6.95;;
21107;SDS011;10712;52.944;9.098;2023-06-22T03:05:14;8.35;;;7.55;;
21107;SDS011;10712;52.944;9.098;2023-06-22T03:07:44;9.02;;;8.18;;
21107;SDS011;10712;52.944;9.098;2023-06-22T03:10:11;11.38;;;10.00;;
21107;SDS011;10712;52.944;9.098;2023-06-22T03:12:39;13.27;;;10.63;;
21107;SDS011;10712;52.944;9.098;2023-06-22T03:15:11;11.20;;;10.02;;
21107;SDS011;10712;52.944;9.098;2023-06-22T03:17:38;9.20;;;8.30;;
21107;SDS011;10712;52.944;9.098;2023-06-22T03:20:07;10.18;;;9.07;;
21107;SDS011;10712;52.944;9.098;2023-06-22T03:22:38;11.73;;;10.60;;
21107;SDS011;10712;52.944;9.098;2023-06-22T03:25:06;11.80;;;10.63;;
21107;SDS011;10712;52.944;9.098;2023-06-22T03:27:37;12.75;;;11.45;;
21107;SDS011;10712;52.944;9.098;2023-06-22T03:30:03;11.15;;;10.07;;
21107;SDS011;10712;52.944;9.098;2023-06-22T03:32:30;9.93;;;8.60;;
21107;SDS011;10712;52.944;9.098;2023-06-22T03:34:57;8.02;;;7.10;;
21107;SDS011;10712;52.944;9.098;2023-06-22T03:37:24;9.90;;;7.72;;
21107;SDS011;10712;52.944;9.098;2023-06-22T03:39:51;9.02;;;8.13;;
21107;SDS011;10712;52.944;9.098;2023-06-22T03:42:18;12.05;;;10.30;;
21107;SDS011;10712;52.944;9.098;2023-06-22T03:44:45;12.32;;;10.45;;
21107;SDS011;10712;52.944;9.098;2023-06-22T03:47:11;11.57;;;10.48;;
21107;SDS011;10712;52.944;9.098;2023-06-22T03:49:37;10.93;;;9.77;;
21107;SDS011;10712;52.944;9.098;2023-06-22T03:52:04;9.13;;;8.23;;
21107;SDS011;10712;52.944;9.098;2023-06-22T03:54:30;10.32;;;9.32;;
21107;SDS011;10712;52.944;9.098;2023-06-22T03:56:57;11.98;;;10.70;;
21107;SDS011;10712;52.944;9.098;2023-06-22T03:59:23;12.70;;;11.38;;
21107;SDS011;10712;52.944;9.098;2023-06-22T04:01:50;12.50;;;10.90;;
21107;SDS011;10712;52.944;9.098;2023-06-22T04:04:19;10.95;;;9.32;;
21107;SDS011;10712;52.944;9.098;2023-06-22T04:06:45;11.40;;;8.10;;
21107;SDS011;10712;52.944;9.098;2023-06-22T04:09:11;13.30;;;9.00;;
21107;SDS011;10712;52.944;9.098;2023-06-22T04:11:37;12.40;;;11.10;;
21107;SDS011;10712;52.944;9.098;2023-06-22T04:14:03;12.68;;;10.65;;
21107;SDS011;10712;52.944;9.098;2023-06-22T04:16:28;9.73;;;7.75;;
21107;SDS011;10712;52.944;9.098;2023-06-22T04:18:54;8.30;;;7.60;;
21107;SDS011;10712;52.944;9.098;2023-06-22T04:21:20;9.68;;;8.68;;
21107;SDS011;10712;52.944;9.098;2023-06-22T04:23:46;8.90;;;8.02;;
21107;SDS011;10712;52.944;9.098;2023-06-22T04:26:12;8.27;;;7.50;;
21107;SDS011;10712;52.944;9.098;2023-06-22T04:28:41;10.07;;;9.05;;
21107;SDS011;10712;52.944;9.098;2023-06-22T04:31:07;12.38;;;11.07;;
21107;SDS011;10712;52.944;9.098;2023-06-22T04:33:33;11.40;;;10.23;;
21107;SDS011;10712;52.944;9.098;2023-06-22T04:35:59;11.82;;;10.23;;
21107;SDS011;10712;52.944;9.098;2023-06-22T04:38:29;10.90;;;9.80;;
21107;SDS011;10712;52.944;9.098;2023-06-22T04:40:58;12.23;;;10.90;;
21107;SDS011;10712;52.944;9.098;2023-06-22T04:43:26;11.80;;;10.60;;
21107;SDS011;10712;52.944;9.098;2023-06-22T04:45:55;12.15;;;10.93;;
21107;SDS011;10712;52.944;9.098;2023-06-22T04:48:28;11.55;;;10.27;;
21107;SDS011;10712;52.944;9.098;2023-06-22T04:51:01;13.38;;;11.52;;
21107;SDS011;10712;52.944;9.098;2023-06-22T04:53:30;12.90;;;11.52;;
21107;SDS011;10712;52.944;9.098;2023-06-22T04:55:56;13.88;;;10.98;;
21107;SDS011;10712;52.944;9.098;2023-06-22T04:58:22;14.05;;;11.50;;
21107;SDS011;10712;52.944;9.098;2023-06-22T05:00:52;11.73;;;10.45;;
21107;SDS011;10712;52.944;9.098;2023-06-22T05:03:17;11.60;;;10.32;;
21107;SDS011;10712;52.944;9.098;2023-06-22T05:05:43;10.60;;;9.50;;
21107;SDS011;10712;52.944;9.098;2023-06-22T05:08:09;11.48;;;10.27;;
21107;SDS011;10712;52.944;9.098;2023-06-22T05:10:35;11.88;;;10.10;;
21107;SDS011;10712;52.944;9.098;2023-06-22T05:13:01;12.05;;;9.98;;
21107;SDS011;10712;52.944;9.098;2023-06-22T05:15:27;10.45;;;9.45;;
21107;SDS011;10712;52.944;9.098;2023-06-22T05:17:55;11.35;;;10.18;;
21107;SDS011;10712;52.944;9.098;2023-06-22T05:20:21;13.32;;;10.13;;
21107;SDS011;10712;52.944;9.098;2023-06-22T05:22:47;11.93;;;10.57;;
21107;SDS011;10712;52.944;9.098;2023-06-22T05:25:13;12.10;;;9.70;;
21107;SDS011;10712;52.944;9.098;2023-06-22T05:27:39;11.40;;;10.10;;
21107;SDS011;10712;52.944;9.098;2023-06-22T05:30:05;11.82;;;9.88;;
21107;SDS011;10712;52.944;9.098;2023-06-22T05:32:33;11.23;;;9.30;;
21107;SDS011;10712;52.944;9.098;2023-06-22T05:34:59;11.40;;;9.15;;
21107;SDS011;10712;52.944;9.098;2023-06-22T05:37:25;8.30;;;6.90;;
21107;SDS011;10712;52.944;9.098;2023-06-22T05:39:51;7.50;;;5.72;;
21107;SDS011;10712;52.944;9.098;2023-06-22T05:42:17;5.72;;;5.22;;
21107;SDS011;10712;52.944;9.098;2023-06-22T05:44:43;10.55;;;7.72;;
21107;SDS011;10712;52.944;9.098;2023-06-22T05:47:08;7.32;;;6.57;;
21107;SDS011;10712;52.944;9.098;2023-06-22T05:49:34;6.57;;;5.97;;
21107;SDS011;10712;52.944;9.098;2023-06-22T05:52:00;8.27;;;7.47;;
21107;SDS011;10712;52.944;9.098;2023-06-22T05:54:28;9.63;;;7.35;;
21107;SDS011;10712;52.944;9.098;2023-06-22T05:56:55;8.38;;;6.55;;
21107;SDS011;10712;52.944;9.098;2023-06-22T05:59:21;7.30;;;6.32;;
21107;SDS011;10712;52.944;9.098;2023-06-22T06:01:47;6.20;;;5.50;;
21107;SDS011;10712;52.944;9.098;2023-06-22T06:04:18;10.60;;;6.32;;
21107;SDS011;10712;52.944;9.098;2023-06-22T06:06:44;5.18;;;4.32;;
21107;SDS011;10712;52.944;9.098;2023-06-22T06:09:12;5.03;;;4.55;;
21107;SDS011;10712;52.944;9.098;2023-06-22T06:11:39;5.13;;;4.68;;
21107;SDS011;10712;52.944;9.098;2023-06-22T06:14:05;4.85;;;4.45;;
21107;SDS011;10712;52.944;9.098;2023-06-22T06:16:31;7.90;;;6.28;;
21107;SDS011;10712;52.944;9.098;2023-06-22T06:18:57;4.43;;;4.03;;
21107;SDS011;10712;52.944;9.098;2023-06-22T06:21:23;5.15;;;4.65;;
21107;SDS011;10712;52.944;9.098;2023-06-22T06:23:49;5.03;;;4.53;;
21107;SDS011;10712;52.944;9.098;2023-06-22T06:26:15;7.32;;;5.47;;
21107;SDS011;10712;52.944;9.098;2023-06-22T06:28:53;7.32;;;5.72;;
21107;SDS011;10712;52.944;9.098;2023-06-22T06:31:20;4.70;;;4.10;;
21107;SDS011;10712;52.944;9.098;2023-06-22T06:33:45;4.95;;;3.85;;
21107;SDS011;10712;52.944;9.098;2023-06-22T06:36:11;6.00;;;4.65;;
21107;SDS011;10712;52.944;9.098;2023-06-22T06:38:37;7.47;;;5.13;;
21107;SDS011;10712;52.944;9.098;2023-06-22T06:41:03;4.50;;;4.10;;
21107;SDS011;10712;52.944;9.098;2023-06-22T06:43:29;4.72;;;4.22;;
21107;SDS011;10712;52.944;9.098;2023-06-22T06:45:54;5.03;;;4.28;;
21107;SDS011;10712;52.944;9.098;2023-06-22T06:48:20;5.53;;;4.93;;
21107;SDS011;10712;52.944;9.098;2023-06-22T06:50:46;5.97;;;5.28;;
21107;SDS011;10712;52.944;9.098;2023-06-22T06:53:12;4.05;;;3.65;;
21107;SDS011;10712;52.944;9.098;2023-06-22T06:55:38;4.90;;;3.72;;
21107;SDS011;10712;52.944;9.098;2023-06-22T06:58:03;4.57;;;3.22;;
21107;SDS011;10712;52.944;9.098;2023-06-22T07:00:32;4.22;;;3.17;;
21107;SDS011;10712;52.944;9.098;2023-06-22T07:03:00;4.10;;;3.15;;
21107;SDS011;10712;52.944;9.098;2023-06-22T07:05:26;4.85;;;3.33;;
21107;SDS011;10712;52.944;9.098;2023-06-22T07:07:52;4.72;;;4.13;;
21107;SDS011;10712;52.944;9.098;2023-06-22T07:10:18;3.05;;;2.75;;
21107;SDS011;10712;52.944;9.098;2023-06-22T07:12:44;4.43;;;3.85;;
21107;SDS011;10712;52.944;9.098;2023-06-22T07:15:10;5.60;;;4.90;;
21107;SDS011;10712;52.944;9.098;2023-06-22T07:17:37;5.43;;;3.70;;
21107;SDS011;10712;52.944;9.098;2023-06-22T07:20:06;4.35;;;3.70;;
21107;SDS011;10712;52.944;9.098;2023-06-22T07:22:36;5.22;;;4.32;;
21107;SDS011;10712;52.944;9.098;2023-06-22T07:25:03;4.53;;;4.13;;
21107;SDS011;10712;52.944;9.098;2023-06-22T07:27:34;4.00;;;3.17;;
21107;SDS011;10712;52.944;9.098;2023-06-22T07:30:08;3.28;;;2.65;;
21107;SDS011;10712;52.944;9.098;2023-06-22T07:32:35;3.35;;;2.85;;
21107;SDS011;10712;52.944;9.098;2023-06-22T07:35:01;9.05;;;3.00;;
21107;SDS011;10712;52.944;9.098;2023-06-22T07:37:28;39.38;;;4.93;;
21107;SDS011;10712;52.944;9.098;2023-06-22T07:39:54;8.65;;;3.17;;
21107;SDS011;10712;52.944;9.098;2023-06-22T07:42:24;5.20;;;2.80;;
21107;SDS011;10712;52.944;9.098;2023-06-22T07:44:51;3.80;;;3.50;;
21107;SDS011;10712;52.944;9.098;2023-06-22T07:47:17;5.07;;;2.80;;
21107;SDS011;10712;52.944;9.098;2023-06-22T07:49:46;3.33;;;2.88;;
21107;SDS011;10712;52.944;9.098;2023-06-22T07:52:12;3.55;;;2.60;;
21107;SDS011;10712;52.944;9.098;2023-06-22T07:54:37;3.13;;;2.83;;
21107;SDS011;10712;52.944;9.098;2023-06-22T07:57:03;3.40;;;2.78;;
21107;SDS011;10712;52.944;9.098;2023-06-22T07:59:30;3.25;;;2.47;;
21107;SDS011;10712;52.944;9.098;2023-06-22T08:01:56;3.17;;;2.50;;
21107;SDS011;10712;52.944;9.098;2023-06-22T08:04:21;4.63;;;2.53;;
21107;SDS011;10712;52.944;9.098;2023-06-22T08:06:47;3.30;;;3.00;;
21107;SDS011;10712;52.944;9.098;2023-06-22T08:09:14;2.55;;;2.35;;
21107;SDS011;10712;52.944;9.098;2023-06-22T08:11:40;3.33;;;2.47;;
21107;SDS011;10712;52.944;9.098;2023-06-22T08:14:06;2.72;;;2.53;;
21107;SDS011;10712;52.944;9.098;2023-06-22T08:16:31;3.45;;;3.08;;
21107;SDS011;10712;52.944;9.098;2023-06-22T08:18:57;6.15;;;2.92;;
21107;SDS011;10712;52.944;9.098;2023-06-22T08:21:23;5.07;;;3.28;;
21107;SDS011;10712;52.944;9.098;2023-06-22T08:23:49;4.00;;;2.17;;
21107;SDS011;10712;52.944;9.098;2023-06-22T08:26:15;2.58;;;2.38;;
21107;SDS011;10712;52.944;9.098;2023-06-22T08:28:40;3.72;;;2.65;;
21107;SDS011;10712;52.944;9.098;2023-06-22T08:31:06;3.13;;;2.63;;
21107;SDS011;10712;52.944;9.098;2023-06-22T08:33:33;3.15;;;2.63;;
21107;SDS011;10712;52.944;9.098;2023-06-22T08:35:59;3.50;;;3.10;;
21107;SDS011;10712;52.944;9.098;2023-06-22T08:38:25;2.78;;;2.50;;
21107;SDS011;10712;52.944;9.098;2023-06-22T08:40:51;4.75;;;2.47;;
21107;SDS011;10712;52.944;9.098;2023-06-22T08:43:17;8.93;;;3.00;;
21107;SDS011;10712;52.944;9.098;2023-06-22T08:45:42;4.13;;;2.45;;
21107;SDS011;10712;52.944;9.098;2023-06-22T08:48:08;3.22;;;2.92;;
21107;SDS011;10712;52.944;9.098;2023-06-22T08:50:34;6.10;;;2.88;;
21107;SDS011;10712;52.944;9.098;2023-06-22T08:52:59;6.43;;;3.42;;
21107;SDS011;10712;52.944;9.098;2023-06-22T08:55:25;4.32;;;3.38;;
21107;SDS011;10712;52.944;9.098;2023-06-22T08:57:51;4.75;;;3.45;;
21107;SDS011;10712;52.944;9.098;2023-06-22T09:00:17;3.97;;;3.40;;
21107;SDS011;10712;52.944;9.098;2023-06-22T09:02:46;4.13;;;3.00;;
21107;SDS011;10712;52.944;9.098;2023-06-22T09:05:14;4.30;;;2.95;;
21107;SDS011;10712;52.944;9.098;2023-06-22T09:07:41;3.08;;;2.78;;
21107;SDS011;10712;52.944;9.098;2023-06-22T09:10:07;2.75;;;2.55;;
21107;SDS011;10712;52.944;9.098;2023-06-22T09:12:33;3.75;;;2.97;;
21107;SDS011;10712;52.944;9.098;2023-06-22T09:15:00;2.88;;;2.67;;
21107;SDS011;10712;52.944;9.098;2023-06-22T09:17:26;5.07;;;3.33;;
21107;SDS011;10712;52.944;9.098;2023-06-22T09:19:52;3.10;;;2.80;;
21107;SDS011;10712;52.944;9.098;2023-06-22T09:22:18;2.80;;;2.40;;
21107;SDS011;10712;52.944;9.098;2023-06-22T09:24:43;4.53;;;2.65;;
21107;SDS011;10712;52.944;9.098;2023-06-22T09:27:09;3.08;;;2.70;;
21107;SDS011;10712;52.944;9.098;2023-06-22T09:29:35;3.25;;;2.95;;
21107;SDS011;10712;52.944;9.098;2023-06-22T09:32:01;3.55;;;3.13;;
21107;SDS011;10712;52.944;9.098;2023-06-22T09:34:27;3.78;;;3.38;;
21107;SDS011;10712;52.944;9.098;2023-06-22T09:36:52;3.67;;;2.88;;
21107;SDS011;10712;52.944;9.098;2023-06-22T09:39:19;3.67;;;2.70;;
21107;SDS011;10712;52.944;9.098;2023-06-22T09:41:44;3.63;;;3.05;;
21107;SDS011;10712;52.944;9.098;2023-06-22T09:44:10;5.25;;;3.38;;
21107;SDS011;10712;52.944;9.098;2023-06-22T09:46:36;3.22;;;2.90;;
21107;SDS011;10712;52.944;9.098;2023-06-22T09:49:02;3.00;;;2.80;;
21107;SDS011;10712;52.944;9.098;2023-06-22T09:51:27;4.35;;;3.83;;
21107;SDS011;10712;52.944;9.098;2023-06-22T09:53:53;4.45;;;3.30;;
21107;SDS011;10712;52.944;9.098;2023-06-22T09:56:19;6.10;;;3.60;;
21107;SDS011;10712;52.944;9.098;2023-06-22T09:58:45;4.95;;;3.65;;
21107;SDS011;10712;52.944;9.098;2023-06-22T10:01:12;3.60;;;3.30;;
21107;SDS011;10712;52.944;9.098;2023-06-22T10:03:42;3.15;;;2.92;;
21107;SDS011;10712;52.944;9.098;2023-06-22T10:06:08;4.35;;;3.83;;
21107;SDS011;10712;52.944;9.098;2023-06-22T10:08:36;3.47;;;3.17;;
21107;SDS011;10712;52.944;9.098;2023-06-22T10:11:03;4.25;;;3.28;;
21107;SDS011;10712;52.944;9.098;2023-06-22T10:13:29;4.43;;;3.05;;
21107;SDS011;10712;52.944;9.098;2023-06-22T10:15:54;3.78;;;3.40;;
21107;SDS011;10712;52.944;9.098;2023-06-22T10:18:21;3.72;;;3.42;;
21107;SDS011;10712;52.944;9.098;2023-06-22T10:20:47;3.38;;;3.08;;
21107;SDS011;10712;52.944;9.098;2023-06-22T10:23:17;3.25;;;2.97;;
21107;SDS011;10712;52.944;9.098;2023-06-22T10:25:44;3.95;;;3.20;;
21107;SDS011;10712;52.944;9.098;2023-06-22T10:28:10;4.35;;;3.83;;
21107;SDS011;10712;52.944;9.098;2023-06-22T10:30:38;4.10;;;3.17;;
21107;SDS011;10712;52.944;9.098;2023-06-22T10:33:06;3.20;;;2.90;;
21107;SDS011;10712;52.944;9.098;2023-06-22T10:35:33;3.20;;;2.90;;
21107;SDS011;10712;52.944;9.098;2023-06-22T10:37:59;4.22;;;3.83;;
21107;SDS011;10712;52.944;9.098;2023-06-22T10:40:25;3.45;;;3.15;;
21107;SDS011;10712;52.944;9.098;2023-06-22T10:42:51;3.33;;;3.03;;
21107;SDS011;10712;52.944;9.098;2023-06-22T10:45:17;5.35;;;3.53;;
21107;SDS011;10712;52.944;9.098;2023-06-22T10:47:43;3.90;;;3.58;;
21107;SDS011;10712;52.944;9.098;2023-06-22T10:50:09;4.25;;;3.70;;
21107;SDS011;10712;52.944;9.098;2023-06-22T10:52:35;5.18;;;3.72;;
21107;SDS011;10712;52.944;9.098;2023-06-22T10:55:01;4.78;;;3.85;;
21107;SDS011;10712;52.944;9.098;2023-06-22T10:57:27;4.97;;;4.57;;
21107;SDS011;10712;52.944;9.098;2023-06-22T10:59:53;4.05;;;3.55;;
21107;SDS011;10712;52.944;9.098;2023-06-22T11:02:19;4.10;;;3.65;;
21107;SDS011;10712;52.944;9.098;2023-06-22T11:04:44;4.72;;;3.58;;
21107;SDS011;10712;52.944;9.098;2023-06-22T11:07:11;3.97;;;3.65;;
21107;SDS011;10712;52.944;9.098;2023-06-22T11:09:37;3.78;;;3.38;;
21107;SDS011;10712;52.944;9.098;2023-06-22T11:12:03;3.55;;;3.25;;
21107;SDS011;10712;52.944;9.098;2023-06-22T11:14:29;4.35;;;3.40;;
21107;SDS011;10712;52.944;9.098;2023-06-22T11:16:55;5.03;;;4.13;;
21107;SDS011;10712;52.944;9.098;2023-06-22T11:19:21;4.38;;;3.92;;
21107;SDS011;10712;52.944;9.098;2023-06-22T11:21:47;7.10;;;4.07;;
21107;SDS011;10712;52.944;9.098;2023-06-22T11:24:12;3.78;;;3.47;;
21107;SDS011;10712;52.944;9.098;2023-06-22T11:26:38;5.05;;;4.63;;
21107;SDS011;10712;52.944;9.098;2023-06-22T11:29:04;6.00;;;4.68;;
21107;SDS011;10712;52.944;9.098;2023-06-22T11:31:31;4.93;;;4.53;;
21107;SDS011;10712;52.944;9.098;2023-06-22T11:33:58;4.95;;;4.55;;
21107;SDS011;10712;52.944;9.098;2023-06-22T11:36:24;4.25;;;3.95;;
21107;SDS011;10712;52.944;9.098;2023-06-22T11:38:51;5.18;;;4.50;;
21107;SDS011;10712;52.944;9.098;2023-06-22T11:41:17;7.03;;;5.32;;
21107;SDS011;10712;52.944;9.098;2023-06-22T11:43:42;5.13;;;4.72;;
21107;SDS011;10712;52.944;9.098;2023-06-22T11:46:09;4.90;;;4.35;;
21107;SDS011;10712;52.944;9.098;2023-06-22T11:48:35;5.15;;;4.65;;
21107;SDS011;10712;52.944;9.098;2023-06-22T11:51:01;5.78;;;3.90;;
21107;SDS011;10712;52.944;9.098;2023-06-22T11:53:28;5.28;;;4.75;;
21107;SDS011;10712;52.944;9.098;2023-06-22T11:55:54;4.65;;;4.28;;
21107;SDS011;10712;52.944;9.098;2023-06-22T11:58:21;5.07;;;4.57;;
21107;SDS011;10712;52.944;9.098;2023-06-22T12:00:47;4.93;;;4.53;;
21107;SDS011;10712;52.944;9.098;2023-06-22T12:03:14;6.18;;;5.05;;
21107;SDS011;10712;52.944;9.098;2023-06-22T12:05:41;5.30;;;4.80;;
21107;SDS011;10712;52.944;9.098;2023-06-22T12:08:07;6.22;;;5.63;;
21107;SDS011;10712;52.944;9.098;2023-06-22T12:10:33;5.82;;;5.00;;
21107;SDS011;10712;52.944;9.098;2023-06-22T12:12:59;5.07;;;4.75;;
21107;SDS011;10712;52.944;9.098;2023-06-22T12:15:25;6.40;;;5.80;;
21107;SDS011;10712;52.944;9.098;2023-06-22T12:17:52;5.38;;;4.95;;
21107;SDS011;10712;52.944;9.098;2023-06-22T12:20:18;5.40;;;4.90;;
21107;SDS011;10712;52.944;9.098;2023-06-22T12:22:44;6.10;;;5.30;;
21107;SDS011;10712;52.944;9.098;2023-06-22T12:25:10;7.07;;;4.97;;
21107;SDS011;10712;52.944;9.098;2023-06-22T12:27:37;5.45;;;5.05;;
21107;SDS011;10712;52.944;9.098;2023-06-22T12:30:03;6.55;;;5.95;;
21107;SDS011;10712;52.944;9.098;2023-06-22T12:32:30;5.93;;;5.43;;
21107;SDS011;10712;52.944;9.098;2023-06-22T12:34:56;5.90;;;5.30;;
21107;SDS011;10712;52.944;9.098;2023-06-22T12:37:22;7.18;;;5.93;;
21107;SDS011;10712;52.944;9.098;2023-06-22T12:39:48;6.60;;;5.90;;
21107;SDS011;10712;52.944;9.098;2023-06-22T12:42:15;5.57;;;5.13;;
21107;SDS011;10712;52.944;9.098;2023-06-22T12:44:41;6.30;;;5.70;;
21107;SDS011;10712;52.944;9.098;2023-06-22T12:47:08;8.35;;;5.90;;
21107;SDS011;10712;52.944;9.098;2023-06-22T12:49:37;6.80;;;6.10;;
21107;SDS011;10712;52.944;9.098;2023-06-22T12:52:02;6.18;;;5.68;;
21107;SDS011;10712;52.944;9.098;2023-06-22T12:54:33;6.13;;;5.63;;
21107;SDS011;10712;52.944;9.098;2023-06-22T12:56:59;6.05;;;5.55;;
21107;SDS011;10712;52.944;9.098;2023-06-22T12:59:26;7.55;;;6.38;;
21107;SDS011;10712;52.944;9.098;2023-06-22T13:01:52;6.40;;;5.90;;
21107;SDS011;10712;52.944;9.098;2023-06-22T13:04:18;6.35;;;5.85;;
21107;SDS011;10712;52.944;9.098;2023-06-22T13:06:47;6.07;;;5.57;;
21107;SDS011;10712;52.944;9.098;2023-06-22T13:09:17;7.15;;;6.30;;
21107;SDS011;10712;52.944;9.098;2023-06-22T13:11:43;6.40;;;5.80;;
21107;SDS011;10712;52.944;9.098;2023-06-22T13:14:09;6.82;;;5.70;;
21107;SDS011;10712;52.944;9.098;2023-06-22T13:16:35;7.57;;;6.03;;
21107;SDS011;10712;52.944;9.098;2023-06-22T13:19:01;8.82;;;5.88;;
21107;SDS011;10712;52.944;9.098;2023-06-22T13:21:26;6.78;;;5.50;;
21107;SDS011;10712;52.944;9.098;2023-06-22T13:23:52;7.43;;;6.72;;
21107;SDS011;10712;52.944;9.098;2023-06-22T13:26:26;6.82;;;6.22;;
21107;SDS011;10712;52.944;9.098;2023-06-22T13:29:17;7.10;;;6.38;;
21107;SDS011;10712;52.944;9.098;2023-06-22T13:31:55;6.70;;;6.10;;
21107;SDS011;10712;52.944;9.098;2023-06-22T13:34:22;7.35;;;6.05;;
21107;SDS011;10712;52.944;9.098;2023-06-22T13:36:52;8.50;;;6.53;;
21107;SDS011;10712;52.944;9.098;2023-06-22T13:39:18;6.63;;;6.00;;
21107;SDS011;10712;52.944;9.098;2023-06-22T13:41:46;6.22;;;5.68;;
21107;SDS011;10712;52.944;9.098;2023-06-22T13:44:16;6.72;;;5.70;;
21107;SDS011;10712;52.944;9.098;2023-06-22T13:46:56;8.23;;;6.07;;
21107;SDS011;10712;52.944;9.098;2023-06-22T13:49:26;6.47;;;5.90;;
21107;SDS011;10712;52.944;9.098;2023-06-22T13:51:56;7.28;;;5.95;;
21107;SDS011;10712;52.944;9.098;2023-06-22T13:54:26;6.82;;;6.18;;
21107;SDS011;10712;52.944;9.098;2023-06-22T13:56:56;7.20;;;5.72;;
21107;SDS011;10712;52.944;9.098;2023-06-22T13:59:23;6.30;;;5.75;;
21107;SDS011;10712;52.944;9.098;2023-06-22T14:01:53;5.90;;;5.25;;
21107;SDS011;10712;52.944;9.098;2023-06-22T14:04:21;6.00;;;5.15;;
21107;SDS011;10712;52.944;9.098;2023-06-22T14:06:50;5.95;;;5.45;;
21107;SDS011;10712;52.944;9.098;2023-06-22T14:09:16;6.63;;;5.55;;
21107;SDS011;10712;52.944;9.098;2023-06-22T14:11:43;6.90;;;5.85;;
21107;SDS011;10712;52.944;9.098;2023-06-22T14:14:08;6.93;;;5.25;;
21107;SDS011;10712;52.944;9.098;2023-06-22T14:16:36;6.97;;;5.43;;
21107;SDS011;10712;52.944;9.098;2023-06-22T14:19:01;7.15;;;5.95;;
21107;SDS011;10712;52.944;9.098;2023-06-22T14:21:27;6.53;;;5.35;;
21107;SDS011;10712;52.944;9.098;2023-06-22T14:23:53;6.53;;;5.93;;
21107;SDS011;10712;52.944;9.098;2023-06-22T14:26:20;7.90;;;6.00;;
21107;SDS011;10712;52.944;9.098;2023-06-22T14:28:47;8.00;;;5.25;;
21107;SDS011;10712;52.944;9.098;2023-06-22T14:31:18;5.40;;;4.90;;
21107;SDS011;10712;52.944;9.098;2023-06-22T14:33:48;6.80;;;5.40;;
21107;SDS011;10712;52.944;9.098;2023-06-22T14:36:18;6.70;;;6.07;;
21107;SDS011;10712;52.944;9.098;2023-06-22T14:38:44;7.30;;;5.68;;
21107;SDS011;10712;52.944;9.098;2023-06-22T14:41:12;8.38;;;5.35;;
21107;SDS011;10712;52.944;9.098;2023-06-22T14:43:38;8.13;;;7.00;;
21107;SDS011;10712;52.944;9.098;2023-06-22T14:46:03;6.28;;;5.68;;
21107;SDS011;10712;52.944;9.098;2023-06-22T14:48:29;7.40;;;6.30;;
21107;SDS011;10712;52.944;9.098;2023-06-22T14:50:55;9.15;;;6.72;;
21107;SDS011;10712;52.944;9.098;2023-06-22T14:53:22;7.15;;;6.45;;
21107;SDS011;10712;52.944;9.098;2023-06-22T14:55:48;6.38;;;5.85;;